createdAt,value
2022-08-31T00:10:32.295Z,100501.67
2022-08-31T00:25:19.720Z,100503.00
2022-08-31T00:40:10.799Z,100489.54
2022-08-31T00:55:03.175Z,100500.06
2022-08-31T01:09:56.303Z,100476.83
2022-08-31T01:24:48.624Z,100497.34
2022-08-31T01:39:41.281Z,100492.44
2022-08-31T01:54:32.499Z,100486.69
2022-08-31T02:09:24.622Z,100480.13
2022-08-31T02:24:16.893Z,100451.70
2022-08-31T02:39:09.798Z,100454.14
2022-08-31T02:54:02.383Z,100447.81
2022-08-31T03:23:47.054Z,100454.95
2022-08-31T03:38:39.607Z,100453.41
2022-08-31T03:53:31.681Z,100472.56
2022-08-31T04:08:24.328Z,100500.55
2022-08-31T04:23:17.164Z,100518.63
2022-08-31T04:38:10.216Z,100533.93
2022-08-31T04:53:03.871Z,100544.66
2022-08-31T05:07:54.621Z,100563.08
2022-08-31T05:22:45.999Z,100539.48
2022-08-31T05:37:38.393Z,100567.91
2022-08-31T05:52:30.547Z,100575.66
2022-08-31T06:07:22.977Z,100587.66
2022-08-31T06:22:15.297Z,100590.91
2022-08-31T06:37:07.918Z,100599.11
2022-08-31T06:52:00.202Z,100599.61
2022-08-31T07:06:52.997Z,100601.02
2022-08-31T07:21:48.436Z,100613.45
2022-08-31T07:37:02.797Z,100622.47
2022-08-31T07:52:01.466Z,100629.59
2022-08-31T08:06:54.204Z,100640.97
2022-08-31T08:21:46.253Z,100655.72
2022-08-31T08:36:38.059Z,100668.59
2022-08-31T08:51:30.132Z,100691.97
2022-08-31T09:06:21.570Z,100700.50
2022-08-31T09:21:19.264Z,100704.42
2022-08-31T09:36:15.520Z,100724.42
2022-08-31T09:51:07.322Z,100734.56
2022-08-31T10:05:57.997Z,100736.25
2022-08-31T10:20:55.003Z,100728.81
2022-08-31T10:35:59.318Z,100740.14
2022-08-31T10:51:18.916Z,100728.70
2022-08-31T11:06:15.871Z,100725.94
2022-08-31T11:21:42.157Z,100723.06
2022-08-31T11:36:45.679Z,100723.07
2022-08-31T11:51:42.099Z,100717.53
2022-08-31T12:06:34.449Z,100708.13
2022-08-31T12:21:57.809Z,100705.91
2022-08-31T12:36:56.600Z,100686.36
2022-08-31T12:51:51.636Z,100678.42
2022-08-31T13:06:46.550Z,100680.55
2022-08-31T13:21:38.970Z,100669.77
2022-08-31T13:36:30.440Z,100651.58
2022-08-31T13:51:23.149Z,100644.58
2022-08-31T14:06:18.256Z,100625.77
2022-08-31T14:21:22.373Z,100627.46
2022-08-31T14:36:06.106Z,100620.73
2022-08-31T14:50:58.371Z,100613.16
2022-08-31T15:05:50.372Z,100605.58
2022-08-31T15:20:42.071Z,100588.03
2022-08-31T15:35:34.179Z,100584.42
2022-08-31T15:50:26.373Z,100574.78
2022-08-31T16:05:17.230Z,100566.72
2022-08-31T16:20:09.408Z,100550.28
2022-08-31T16:35:01.698Z,100542.02
2022-08-31T16:49:54.098Z,100548.81
2022-08-31T17:04:52.529Z,100547.05
2022-08-31T17:19:37.931Z,100552.00
2022-08-31T17:34:29.918Z,100556.46
2022-08-31T17:49:21.930Z,100563.87
2022-08-31T18:04:13.247Z,100573.05
2022-08-31T18:19:05.596Z,100572.45
2022-08-31T18:34:00.272Z,100577.18
2022-08-31T19:18:59.477Z,100586.91
2022-08-31T19:33:56.511Z,100573.80
2022-08-31T19:48:45.195Z,100581.31
2022-08-31T20:03:34.143Z,100576.41
2022-08-31T20:48:32.861Z,100569.81
2022-08-31T21:03:30.024Z,100567.98
2022-08-31T21:18:21.472Z,100565.42
2022-08-31T21:33:13.046Z,100561.11
2022-08-31T21:48:03.912Z,100555.37
2022-08-31T22:02:54.881Z,100569.75
2022-08-31T22:18:06.307Z,100578.42
2022-08-31T22:32:37.526Z,100585.33
2022-08-31T22:47:28.118Z,100577.35
2022-08-31T23:02:20.033Z,100581.53
2022-08-31T23:17:11.225Z,100569.26
2022-08-31T23:32:02.552Z,100557.09
2022-08-31T23:46:53.069Z,100555.54
